EWG2MU LSGG-EDDL
Flight info
| Callsign | EWG2MU |
|---|---|
| Flight time | 0h 50m |
| Altitude | 36000 |
| Route | DIPIR1A ARBOS DCT PENDU DCT IXILU DCT GIVOR DCT SORAL DCT IBERA DCT DIK N853 ARCKY T853 NVO T857 BIKMU BIKMU1A |
| Aircraft | A319/M-SDE3FGHIRWY/LB1 |
Departure
| Time | 2026-05-05 17:43 |
|---|---|
| Airport | Geneva International Airport (LSGG) |
Arrival
| Time | 2026-05-05 18:33 |
|---|---|
| Airport | Düsseldorf Airport (EDDL) |
| Time | Latitude | Longitude | Altitude | Speed | Heading |
|---|---|---|---|---|---|
| 2026-05-05 17:18 | 46.23154 | 6.10743 | 1400 ft | 0 kts | 135° |
| 2026-05-05 17:32 | 46.23165 | 6.10726 | 1387 ft | 4 kts | 124° |
| 2026-05-05 17:32 | 46.23176 | 6.10692 | 1398 ft | 4 kts | 89° |
| 2026-05-05 17:32 | 46.23169 | 6.10663 | 1398 ft | 2 kts | 45° |
| 2026-05-05 17:33 | 46.23156 | 6.10644 | 1404 ft | 0 kts | 45° |
| 2026-05-05 17:35 | 46.23157 | 6.10646 | 1404 ft | 1 kts | 45° |
| 2026-05-05 17:35 | 46.23165 | 6.10657 | 1403 ft | 3 kts | 46° |
| 2026-05-05 17:35 | 46.23201 | 6.10711 | 1400 ft | 10 kts | 47° |
| 2026-05-05 17:35 | 46.23258 | 6.10775 | 1400 ft | 11 kts | 19° |
| 2026-05-05 17:36 | 46.23332 | 6.10812 | 1399 ft | 12 kts | 41° |
| 2026-05-05 17:36 | 46.23392 | 6.10899 | 1393 ft | 13 kts | 44° |
| 2026-05-05 17:36 | 46.23456 | 6.10995 | 1398 ft | 14 kts | 46° |
| 2026-05-05 17:36 | 46.23526 | 6.11096 | 1397 ft | 9 kts | 44° |
| 2026-05-05 17:37 | 46.23576 | 6.11166 | 1392 ft | 10 kts | 35° |
| 2026-05-05 17:37 | 46.23612 | 6.11149 | 1394 ft | 3 kts | 339° |
| 2026-05-05 17:37 | 46.23625 | 6.11132 | 1395 ft | 4 kts | 313° |
| 2026-05-05 17:37 | 46.23650 | 6.11095 | 1394 ft | 6 kts | 314° |
| 2026-05-05 17:38 | 46.23700 | 6.11066 | 1388 ft | 11 kts | 24° |
| 2026-05-05 17:38 | 46.23766 | 6.11171 | 1379 ft | 18 kts | 43° |
| 2026-05-05 17:38 | 46.23863 | 6.11313 | 1375 ft | 21 kts | 46° |
| 2026-05-05 17:38 | 46.23977 | 6.11479 | 1373 ft | 25 kts | 46° |
| 2026-05-05 17:39 | 46.24108 | 6.11673 | 1367 ft | 29 kts | 46° |
| 2026-05-05 17:39 | 46.24258 | 6.11893 | 1362 ft | 32 kts | 45° |
| 2026-05-05 17:39 | 46.24416 | 6.12123 | 1370 ft | 31 kts | 45° |
| 2026-05-05 17:39 | 46.24569 | 6.12349 | 1371 ft | 32 kts | 45° |
| 2026-05-05 17:40 | 46.24732 | 6.12588 | 1362 ft | 29 kts | 46° |
| 2026-05-05 17:40 | 46.24846 | 6.12692 | 1362 ft | 19 kts | 17° |
| 2026-05-05 17:40 | 46.24921 | 6.12723 | 1366 ft | 0 kts | 16° |
| 2026-05-05 17:41 | 46.24928 | 6.12726 | 1365 ft | 4 kts | 16° |
| 2026-05-05 17:41 | 46.24967 | 6.12727 | 1369 ft | 7 kts | 350° |
| 2026-05-05 17:41 | 46.25006 | 6.12677 | 1371 ft | 7 kts | 283° |
| 2026-05-05 17:41 | 46.24975 | 6.12613 | 1372 ft | 9 kts | 225° |
| 2026-05-05 17:42 | 46.24924 | 6.12538 | 1372 ft | 14 kts | 225° |
| 2026-05-05 17:42 | 46.24734 | 6.12261 | 1372 ft | 68 kts | 225° |
| 2026-05-05 17:42 | 46.24239 | 6.11539 | 1374 ft | 133 kts | 225° |
| 2026-05-05 17:42 | 46.23532 | 6.10497 | 1890 ft | 143 kts | 224° |
| 2026-05-05 17:43 | 46.22833 | 6.09445 | 2534 ft | 148 kts | 228° |
| 2026-05-05 17:43 | 46.22123 | 6.08346 | 3233 ft | 151 kts | 227° |
| 2026-05-05 17:43 | 46.21381 | 6.07190 | 3661 ft | 164 kts | 226° |
| 2026-05-05 17:43 | 46.20552 | 6.05979 | 4170 ft | 175 kts | 225° |
| 2026-05-05 17:44 | 46.19656 | 6.04712 | 4784 ft | 184 kts | 225° |
| 2026-05-05 17:44 | 46.18710 | 6.03371 | 5332 ft | 200 kts | 224° |
| 2026-05-05 17:44 | 46.17669 | 6.01897 | 5950 ft | 217 kts | 225° |
| 2026-05-05 17:44 | 46.16567 | 6.00329 | 6718 ft | 230 kts | 224° |
| 2026-05-05 17:45 | 46.15436 | 5.98591 | 7447 ft | 245 kts | 234° |
| 2026-05-05 17:45 | 46.14779 | 5.96250 | 8182 ft | 261 kts | 259° |
| 2026-05-05 17:45 | 46.14888 | 5.93597 | 9070 ft | 274 kts | 282° |
| 2026-05-05 17:45 | 46.15812 | 5.91137 | 9923 ft | 290 kts | 308° |
| 2026-05-05 17:46 | 46.17516 | 5.89363 | 10402 ft | 317 kts | 330° |
| 2026-05-05 17:46 | 46.19614 | 5.88157 | 10981 ft | 332 kts | 336° |
| 2026-05-05 17:46 | 46.21866 | 5.87005 | 11273 ft | 356 kts | 337° |
| 2026-05-05 17:46 | 46.24248 | 5.85799 | 11760 ft | 368 kts | 338° |
| 2026-05-05 17:47 | 46.26681 | 5.84548 | 12478 ft | 374 kts | 337° |
| 2026-05-05 17:47 | 46.29139 | 5.83246 | 13196 ft | 378 kts | 336° |
| 2026-05-05 17:47 | 46.31616 | 5.81900 | 13904 ft | 382 kts | 336° |
| 2026-05-05 17:47 | 46.34112 | 5.80524 | 14558 ft | 386 kts | 336° |
| 2026-05-05 17:48 | 46.36630 | 5.79120 | 15197 ft | 390 kts | 336° |
| 2026-05-05 17:48 | 46.39170 | 5.77698 | 15854 ft | 394 kts | 336° |
| 2026-05-05 17:48 | 46.41735 | 5.76262 | 16506 ft | 397 kts | 336° |
| 2026-05-05 17:48 | 46.44328 | 5.74816 | 17208 ft | 400 kts | 336° |
| 2026-05-05 17:49 | 46.46939 | 5.73365 | 17902 ft | 404 kts | 336° |
| 2026-05-05 17:49 | 46.49577 | 5.71898 | 18531 ft | 408 kts | 336° |
| 2026-05-05 17:49 | 46.52236 | 5.70417 | 19112 ft | 411 kts | 336° |
| 2026-05-05 17:49 | 46.54009 | 5.69427 | 19498 ft | 414 kts | 336° |
| 2026-05-05 17:50 | 46.56634 | 5.67695 | 20048 ft | 415 kts | 328° |
| 2026-05-05 17:50 | 46.59168 | 5.65643 | 20599 ft | 419 kts | 329° |
| 2026-05-05 17:50 | 46.61917 | 5.64120 | 21111 ft | 428 kts | 343° |
| 2026-05-05 17:50 | 46.65882 | 5.63618 | 21775 ft | 438 kts | 2° |
| 2026-05-05 17:51 | 46.68890 | 5.64461 | 22256 ft | 444 kts | 17° |
| 2026-05-05 17:51 | 46.70821 | 5.65630 | 22580 ft | 447 kts | 27° |
| 2026-05-05 17:51 | 46.73396 | 5.68188 | 23061 ft | 450 kts | 42° |
| 2026-05-05 17:51 | 46.76447 | 5.72317 | 23626 ft | 455 kts | 44° |
| 2026-05-05 17:52 | 46.78011 | 5.74452 | 23889 ft | 457 kts | 44° |
| 2026-05-05 17:52 | 46.80339 | 5.77640 | 24285 ft | 460 kts | 44° |
| 2026-05-05 17:52 | 46.82673 | 5.80849 | 24692 ft | 463 kts | 44° |
| 2026-05-05 17:52 | 46.85018 | 5.84085 | 25107 ft | 465 kts | 44° |
| 2026-05-05 17:53 | 46.87374 | 5.87340 | 25515 ft | 467 kts | 44° |
| 2026-05-05 17:53 | 46.89742 | 5.90614 | 25920 ft | 470 kts | 44° |
| 2026-05-05 17:53 | 46.92120 | 5.93909 | 26309 ft | 473 kts | 44° |
| 2026-05-05 17:53 | 46.94627 | 5.96937 | 26681 ft | 476 kts | 36° |
| 2026-05-05 17:54 | 46.97482 | 5.99426 | 27025 ft | 479 kts | 26° |
| 2026-05-05 17:54 | 47.00581 | 6.01260 | 27389 ft | 482 kts | 17° |
| 2026-05-05 17:54 | 47.03843 | 6.02386 | 27754 ft | 483 kts | 7° |
| 2026-05-05 17:54 | 47.07191 | 6.02779 | 28133 ft | 483 kts | 359° |
| 2026-05-05 17:55 | 47.10558 | 6.02829 | 28483 ft | 485 kts | 359° |
| 2026-05-05 17:55 | 47.13949 | 6.02887 | 28815 ft | 488 kts | 359° |
| 2026-05-05 17:55 | 47.17350 | 6.02951 | 29132 ft | 490 kts | 359° |
| 2026-05-05 17:55 | 47.20768 | 6.03016 | 29509 ft | 491 kts | 359° |
| 2026-05-05 17:56 | 47.24182 | 6.03079 | 29978 ft | 490 kts | 360° |
| 2026-05-05 17:56 | 47.27588 | 6.03140 | 30414 ft | 489 kts | 359° |
| 2026-05-05 17:56 | 47.30988 | 6.03202 | 30837 ft | 488 kts | 359° |
| 2026-05-05 17:56 | 47.34380 | 6.03266 | 31242 ft | 487 kts | 359° |
| 2026-05-05 17:57 | 47.37762 | 6.03330 | 31657 ft | 486 kts | 359° |
| 2026-05-05 17:57 | 47.41144 | 6.03395 | 32072 ft | 485 kts | 359° |
| 2026-05-05 17:57 | 47.44515 | 6.03468 | 32489 ft | 484 kts | 359° |
| 2026-05-05 17:57 | 47.47878 | 6.03542 | 32961 ft | 482 kts | 359° |
| 2026-05-05 17:58 | 47.51230 | 6.03618 | 33413 ft | 481 kts | 359° |
| 2026-05-05 17:58 | 47.54574 | 6.03699 | 33844 ft | 480 kts | 359° |
| 2026-05-05 17:58 | 47.57916 | 6.03779 | 34203 ft | 480 kts | 359° |
| 2026-05-05 17:58 | 47.61253 | 6.03856 | 34552 ft | 480 kts | 359° |
| 2026-05-05 17:59 | 47.64589 | 6.03930 | 34890 ft | 480 kts | 359° |
| 2026-05-05 17:59 | 47.67925 | 6.04003 | 35267 ft | 478 kts | 359° |
| 2026-05-05 17:59 | 47.71252 | 6.04070 | 35606 ft | 478 kts | 359° |
| 2026-05-05 17:59 | 47.74574 | 6.04468 | 35820 ft | 481 kts | 8° |
| 2026-05-05 18:00 | 47.77839 | 6.05524 | 35867 ft | 480 kts | 13° |
| 2026-05-05 18:00 | 47.84300 | 6.07988 | 35865 ft | 479 kts | 13° |
| 2026-05-05 18:01 | 47.90752 | 6.10428 | 35871 ft | 477 kts | 13° |
| 2026-05-05 18:01 | 47.97189 | 6.12843 | 35869 ft | 477 kts | 13° |
| 2026-05-05 18:02 | 48.03619 | 6.15264 | 35862 ft | 477 kts | 13° |
| 2026-05-05 18:02 | 48.10001 | 6.17684 | 35857 ft | 476 kts | 14° |
| 2026-05-05 18:03 | 48.16419 | 6.20131 | 35852 ft | 475 kts | 14° |
| 2026-05-05 18:03 | 48.22830 | 6.22581 | 35845 ft | 475 kts | 14° |
| 2026-05-05 18:04 | 48.29236 | 6.25033 | 35845 ft | 475 kts | 14° |
| 2026-05-05 18:04 | 48.35633 | 6.27488 | 35846 ft | 474 kts | 14° |
| 2026-05-05 18:05 | 48.42027 | 6.29937 | 35844 ft | 474 kts | 14° |
| 2026-05-05 18:05 | 48.48423 | 6.32394 | 35844 ft | 474 kts | 15° |
| 2026-05-05 18:06 | 48.54815 | 6.34856 | 35844 ft | 474 kts | 15° |
| 2026-05-05 18:06 | 48.61198 | 6.37329 | 35844 ft | 474 kts | 15° |
| 2026-05-05 18:07 | 48.67649 | 6.39339 | 35845 ft | 474 kts | 4° |
| 2026-05-05 18:07 | 48.74220 | 6.39991 | 35840 ft | 473 kts | 4° |
| 2026-05-05 18:08 | 48.80790 | 6.40640 | 35832 ft | 473 kts | 4° |
| 2026-05-05 18:08 | 48.87364 | 6.41307 | 35831 ft | 473 kts | 4° |
| 2026-05-05 18:09 | 48.93895 | 6.41972 | 35835 ft | 473 kts | 4° |
| 2026-05-05 18:09 | 49.00453 | 6.42644 | 35841 ft | 472 kts | 4° |
| 2026-05-05 18:10 | 49.07011 | 6.43315 | 35841 ft | 472 kts | 4° |
| 2026-05-05 18:10 | 49.13542 | 6.42826 | 35832 ft | 471 kts | 348° |
| 2026-05-05 18:11 | 49.19884 | 6.40292 | 35833 ft | 471 kts | 344° |
| 2026-05-05 18:11 | 49.26207 | 6.37682 | 35826 ft | 471 kts | 344° |
| 2026-05-05 18:12 | 49.32534 | 6.35082 | 35705 ft | 472 kts | 345° |
| 2026-05-05 18:12 | 49.35700 | 6.33781 | 35259 ft | 471 kts | 345° |
| 2026-05-05 18:12 | 49.38870 | 6.32472 | 34767 ft | 471 kts | 345° |
| 2026-05-05 18:12 | 49.42030 | 6.31162 | 34287 ft | 471 kts | 346° |
| 2026-05-05 18:13 | 49.45201 | 6.29846 | 33805 ft | 471 kts | 346° |
| 2026-05-05 18:13 | 49.48357 | 6.28533 | 33256 ft | 471 kts | 346° |
| 2026-05-05 18:13 | 49.51523 | 6.27216 | 32732 ft | 471 kts | 346° |
| 2026-05-05 18:13 | 49.54688 | 6.25910 | 32196 ft | 471 kts | 346° |
| 2026-05-05 18:14 | 49.57860 | 6.24609 | 31658 ft | 471 kts | 347° |
| 2026-05-05 18:14 | 49.61025 | 6.23312 | 31146 ft | 471 kts | 347° |
| 2026-05-05 18:14 | 49.64193 | 6.22014 | 30641 ft | 470 kts | 347° |
| 2026-05-05 18:14 | 49.67350 | 6.20720 | 30147 ft | 470 kts | 347° |
| 2026-05-05 18:15 | 49.70507 | 6.19427 | 29616 ft | 469 kts | 347° |
| 2026-05-05 18:15 | 49.73668 | 6.18130 | 29048 ft | 470 kts | 347° |
| 2026-05-05 18:15 | 49.76834 | 6.16828 | 28484 ft | 472 kts | 346° |
| 2026-05-05 18:15 | 49.80014 | 6.15518 | 27954 ft | 474 kts | 346° |
| 2026-05-05 18:16 | 49.83206 | 6.14202 | 27403 ft | 476 kts | 346° |
| 2026-05-05 18:16 | 49.86462 | 6.13250 | 26879 ft | 477 kts | 354° |
| 2026-05-05 18:16 | 49.89771 | 6.12993 | 26363 ft | 477 kts | 1° |
| 2026-05-05 18:16 | 49.93099 | 6.13021 | 25860 ft | 479 kts | 1° |
| 2026-05-05 18:17 | 49.96438 | 6.13041 | 25360 ft | 480 kts | 1° |
| 2026-05-05 18:17 | 49.99776 | 6.13055 | 24870 ft | 478 kts | 1° |
| 2026-05-05 18:17 | 50.03097 | 6.13067 | 24389 ft | 476 kts | 0° |
| 2026-05-05 18:17 | 50.06393 | 6.13083 | 23911 ft | 471 kts | 0° |
| 2026-05-05 18:18 | 50.09612 | 6.13101 | 23453 ft | 467 kts | 0° |
| 2026-05-05 18:18 | 50.12893 | 6.13123 | 22908 ft | 464 kts | 0° |
| 2026-05-05 18:18 | 50.16071 | 6.13147 | 22548 ft | 461 kts | 0° |
| 2026-05-05 18:18 | 50.19274 | 6.13166 | 22250 ft | 459 kts | 0° |
| 2026-05-05 18:19 | 50.22461 | 6.13304 | 21951 ft | 457 kts | 7° |
| 2026-05-05 18:19 | 50.25576 | 6.14484 | 21656 ft | 454 kts | 21° |
| 2026-05-05 18:19 | 50.28278 | 6.16837 | 21359 ft | 449 kts | 38° |
| 2026-05-05 18:19 | 50.30705 | 6.19904 | 21076 ft | 448 kts | 37° |
| 2026-05-05 18:20 | 50.33442 | 6.22207 | 20793 ft | 448 kts | 22° |
| 2026-05-05 18:20 | 50.36333 | 6.23898 | 20508 ft | 437 kts | 21° |
| 2026-05-05 18:20 | 50.39138 | 6.25516 | 20204 ft | 422 kts | 20° |
| 2026-05-05 18:20 | 50.41855 | 6.27078 | 19906 ft | 416 kts | 20° |
| 2026-05-05 18:21 | 50.44625 | 6.28669 | 19616 ft | 429 kts | 20° |
| 2026-05-05 18:21 | 50.47440 | 6.30288 | 19323 ft | 431 kts | 20° |
| 2026-05-05 18:21 | 50.50256 | 6.31905 | 19024 ft | 431 kts | 21° |
| 2026-05-05 18:21 | 50.53069 | 6.33524 | 18743 ft | 430 kts | 21° |
| 2026-05-05 18:22 | 50.55871 | 6.35143 | 18463 ft | 428 kts | 21° |
| 2026-05-05 18:22 | 50.58666 | 6.36762 | 18182 ft | 427 kts | 21° |
| 2026-05-05 18:22 | 50.61443 | 6.38379 | 17872 ft | 425 kts | 21° |
| 2026-05-05 18:22 | 50.64213 | 6.39998 | 17550 ft | 423 kts | 21° |
| 2026-05-05 18:23 | 50.66969 | 6.41610 | 17233 ft | 422 kts | 21° |
| 2026-05-05 18:23 | 50.69716 | 6.43212 | 16898 ft | 420 kts | 21° |
| 2026-05-05 18:23 | 50.72446 | 6.44803 | 16268 ft | 416 kts | 21° |
| 2026-05-05 18:23 | 50.75138 | 6.46375 | 15698 ft | 409 kts | 21° |
| 2026-05-05 18:24 | 50.77777 | 6.47917 | 15215 ft | 400 kts | 21° |
| 2026-05-05 18:24 | 50.80354 | 6.49424 | 14724 ft | 387 kts | 21° |
| 2026-05-05 18:24 | 50.82828 | 6.50871 | 14205 ft | 373 kts | 21° |
| 2026-05-05 18:24 | 50.85234 | 6.52283 | 13608 ft | 364 kts | 21° |
| 2026-05-05 18:25 | 50.87474 | 6.54018 | 12941 ft | 355 kts | 32° |
| 2026-05-05 18:25 | 50.88850 | 6.55379 | 12432 ft | 349 kts | 33° |
| 2026-05-05 18:25 | 50.91549 | 6.58113 | 11403 ft | 340 kts | 33° |
| 2026-05-05 18:25 | 50.93514 | 6.60130 | 10659 ft | 334 kts | 33° |
| 2026-05-05 18:26 | 50.95448 | 6.62111 | 9926 ft | 328 kts | 33° |
| 2026-05-05 18:26 | 50.97348 | 6.64055 | 9153 ft | 322 kts | 33° |
| 2026-05-05 18:26 | 50.99268 | 6.65841 | 8376 ft | 318 kts | 22° |
| 2026-05-05 18:26 | 51.01403 | 6.66446 | 7709 ft | 310 kts | 356° |
| 2026-05-05 18:27 | 51.03429 | 6.65580 | 7208 ft | 298 kts | 331° |
| 2026-05-05 18:27 | 51.04967 | 6.63492 | 6714 ft | 288 kts | 307° |
| 2026-05-05 18:27 | 51.06123 | 6.60948 | 6228 ft | 280 kts | 304° |
| 2026-05-05 18:27 | 51.07325 | 6.58569 | 5728 ft | 273 kts | 320° |
| 2026-05-05 18:28 | 51.10748 | 6.56249 | 4659 ft | 264 kts | 343° |
| 2026-05-05 18:28 | 51.12481 | 6.55388 | 4211 ft | 258 kts | 343° |
| 2026-05-05 18:28 | 51.14169 | 6.54545 | 3819 ft | 250 kts | 344° |
| 2026-05-05 18:29 | 51.15850 | 6.54178 | 3486 ft | 238 kts | 5° |
| 2026-05-05 18:29 | 51.17374 | 6.54743 | 3402 ft | 216 kts | 25° |
| 2026-05-05 18:29 | 51.18602 | 6.55937 | 3205 ft | 202 kts | 41° |
| 2026-05-05 18:29 | 51.19523 | 6.57582 | 2940 ft | 198 kts | 52° |
| 2026-05-05 18:30 | 51.20367 | 6.59339 | 2683 ft | 199 kts | 52° |
| 2026-05-05 18:30 | 51.21195 | 6.61064 | 2411 ft | 191 kts | 52° |
| 2026-05-05 18:30 | 51.21967 | 6.62673 | 2176 ft | 175 kts | 52° |
| 2026-05-05 18:30 | 51.22669 | 6.64136 | 1929 ft | 157 kts | 51° |
| 2026-05-05 18:31 | 51.23301 | 6.65454 | 1739 ft | 150 kts | 51° |
| 2026-05-05 18:31 | 51.23946 | 6.66824 | 1551 ft | 157 kts | 51° |
| 2026-05-05 18:31 | 51.24629 | 6.68209 | 1211 ft | 157 kts | 51° |
| 2026-05-05 18:31 | 51.25273 | 6.69558 | 989 ft | 154 kts | 51° |
| 2026-05-05 18:32 | 51.25916 | 6.70939 | 888 ft | 154 kts | 52° |
| 2026-05-05 18:32 | 51.26553 | 6.72314 | 685 ft | 156 kts | 50° |
| 2026-05-05 18:32 | 51.27186 | 6.73633 | 447 ft | 143 kts | 48° |
| 2026-05-05 18:32 | 51.27790 | 6.74858 | 251 ft | 139 kts | 48° |
| 2026-05-05 18:33 | 51.28351 | 6.76020 | 133 ft | 121 kts | 51° |
| 2026-05-05 18:33 | 51.28784 | 6.76928 | 132 ft | 79 kts | 53° |
| 2026-05-05 18:33 | 51.28995 | 6.77373 | 128 ft | 28 kts | 56° |
| 2026-05-05 18:33 | 51.28995 | 6.77579 | 128 ft | 19 kts | 137° |
| 2026-05-05 18:34 | 51.28955 | 6.77627 | 128 ft | 3 kts | 146° |
| 2026-05-05 18:34 | 51.28924 | 6.77657 | 126 ft | 7 kts | 155° |
| 2026-05-05 18:34 | 51.28885 | 6.77623 | 128 ft | 8 kts | 238° |
| 2026-05-05 18:34 | 51.28847 | 6.77532 | 129 ft | 11 kts | 236° |
| 2026-05-05 18:35 | 51.28794 | 6.77416 | 128 ft | 14 kts | 232° |
| 2026-05-05 18:35 | 51.28727 | 6.77276 | 128 ft | 17 kts | 233° |
| 2026-05-05 18:35 | 51.28654 | 6.77119 | 128 ft | 18 kts | 231° |
| 2026-05-05 18:35 | 51.28569 | 6.76944 | 129 ft | 22 kts | 233° |
| 2026-05-05 18:36 | 51.28514 | 6.76825 | 128 ft | 9 kts | 233° |
| 2026-05-05 18:36 | 51.28472 | 6.76743 | 125 ft | 10 kts | 232° |
| 2026-05-05 18:36 | 51.28430 | 6.76654 | 126 ft | 10 kts | 233° |
| 2026-05-05 18:36 | 51.28384 | 6.76557 | 126 ft | 11 kts | 233° |
| 2026-05-05 18:37 | 51.28354 | 6.76492 | 124 ft | 11 kts | 233° |
| 2026-05-05 18:37 | 51.28308 | 6.76396 | 126 ft | 11 kts | 233° |
| 2026-05-05 18:37 | 51.28265 | 6.76306 | 126 ft | 10 kts | 232° |
| 2026-05-05 18:37 | 51.28225 | 6.76221 | 129 ft | 9 kts | 232° |
| 2026-05-05 18:38 | 51.28187 | 6.76143 | 126 ft | 9 kts | 232° |
| 2026-05-05 18:38 | 51.28150 | 6.76068 | 127 ft | 9 kts | 231° |
| 2026-05-05 18:38 | 51.28101 | 6.76031 | 130 ft | 8 kts | 167° |
| 2026-05-05 18:38 | 51.28049 | 6.76048 | 128 ft | 7 kts | 180° |
| 2026-05-05 18:39 | 51.28003 | 6.76048 | 128 ft | 6 kts | 180° |
| 2026-05-05 18:39 | 51.27961 | 6.76048 | 128 ft | 6 kts | 180° |
| 2026-05-05 18:39 | 51.27911 | 6.76048 | 131 ft | 9 kts | 181° |
| 2026-05-05 18:39 | 51.27849 | 6.76073 | 131 ft | 9 kts | 135° |
| 2026-05-05 18:40 | 51.27842 | 6.76172 | 131 ft | 9 kts | 90° |
| 2026-05-05 18:40 | 51.27845 | 6.76259 | 127 ft | 6 kts | 67° |
| 2026-05-05 18:40 | 51.27867 | 6.76291 | 129 ft | 3 kts | 46° |
| 2026-05-05 18:40 | 51.27880 | 6.76317 | 131 ft | 3 kts | 50° |
| 2026-05-05 18:41 | 51.27886 | 6.76328 | 131 ft | 1 kts | 50° |
| 2026-05-05 18:41 | 51.27889 | 6.76333 | 131 ft | 0 kts | 50° |